Time;durP1;ratioP1;P1;durP2;ratioP2;P2;SDS_P1;SDS_P2;PMS_P1;PMS_P2;Temp;Humidity;BMP_temperature;BMP_pressure;BME280_temperature;BME280_humidity;BME280_pressure;Samples;Min_cycle;Max_cycle;Signal;HPM_P1;HPM_P2
2023/07/27 00:08:22;;;;;;;8.20;4.10;;;;;;;;;;21006398;28;20057;-66
2023/07/27 00:18:23;;;;;;;7.55;3.78;;;;;;;;;;21011576;28;20090;-66
2023/07/27 00:28:24;;;;;;;8.27;4.40;;;;;;;;;;21010689;28;20044;-67
2023/07/27 00:38:25;;;;;;;7.80;4.00;;;;;;;;;;21010020;28;20119;-66
2023/07/27 00:48:26;;;;;;;9.10;4.97;;;;;;;;;;21008447;28;20051;-66
2023/07/27 00:58:27;;;;;;;8.98;4.55;;;;;;;;;;21007618;28;20051;-66
2023/07/27 01:08:28;;;;;;;10.13;4.35;;;;;;;;;;21005416;28;20068;-67
2023/07/27 01:18:33;;;;;;;10.00;4.40;;;;;;;;;;21004108;28;20055;-65
2023/07/27 01:28:40;;;;;;;8.77;3.70;;;;;;;;;;21005158;28;20080;-66
2023/07/27 01:38:43;;;;;;;11.32;5.13;;;;;;;;;;21004732;28;20094;-66
2023/07/27 01:48:44;;;;;;;7.15;4.32;;;;;;;;;;21003860;28;20045;-66
2023/07/27 01:58:46;;;;;;;13.23;4.80;;;;;;;;;;21003166;28;20040;-66
2023/07/27 02:08:47;;;;;;;9.10;4.63;;;;;;;;;;21001894;28;20056;-66
2023/07/27 02:18:50;;;;;;;11.13;4.03;;;;;;;;;;21001272;28;20508;-66
2023/07/27 02:28:51;;;;;;;14.23;4.32;;;;;;;;;;20999582;28;20124;-67
2023/07/27 02:38:52;;;;;;;6.35;3.63;;;;;;;;;;20998554;28;20048;-66
2023/07/27 02:48:55;;;;;;;9.50;4.40;;;;;;;;;;20997864;28;20036;-65
2023/07/27 02:58:56;;;;;;;8.20;4.10;;;;;;;;;;20999506;28;20106;-66
2023/07/27 03:08:57;;;;;;;8.93;3.42;;;;;;;;;;20997806;28;20514;-66
2023/07/27 03:18:58;;;;;;;9.00;3.72;;;;;;;;;;20998227;28;20059;-66
2023/07/27 03:28:59;;;;;;;9.55;3.55;;;;;;;;;;20997917;28;20067;-65
2023/07/27 03:39:01;;;;;;;6.43;3.00;;;;;;;;;;20997205;28;20067;-66
2023/07/27 03:49:02;;;;;;;5.65;2.75;;;;;;;;;;20996325;28;20067;-66
2023/07/27 03:59:03;;;;;;;7.90;2.88;;;;;;;;;;20996274;28;20103;-66
2023/07/27 04:09:04;;;;;;;7.88;3.00;;;;;;;;;;20995752;28;20532;-66
2023/07/27 04:19:05;;;;;;;5.13;2.67;;;;;;;;;;20994402;28;20049;-66
2023/07/27 04:29:06;;;;;;;8.07;2.97;;;;;;;;;;20995207;28;20200;-65
2023/07/27 04:39:07;;;;;;;7.50;2.58;;;;;;;;;;20995000;28;20050;-66
2023/07/27 04:49:08;;;;;;;7.93;2.85;;;;;;;;;;20996592;28;20047;-67
2023/07/27 04:59:09;;;;;;;6.28;2.50;;;;;;;;;;21009217;28;20055;-66
2023/07/27 05:09:10;;;;;;;7.05;2.60;;;;;;;;;;21006587;28;20049;-66
2023/07/27 05:19:11;;;;;;;6.45;2.58;;;;;;;;;;21007587;28;20052;-67
2023/07/27 05:29:13;;;;;;;6.80;2.45;;;;;;;;;;21006561;28;20482;-67
2023/07/27 05:39:14;;;;;;;6.70;2.30;;;;;;;;;;21004657;28;20054;-66
2023/07/27 05:49:15;;;;;;;5.57;2.80;;;;;;;;;;21005170;28;20041;-66
2023/07/27 05:59:16;;;;;;;4.70;2.55;;;;;;;;;;21004184;28;20555;-65
2023/07/27 06:09:17;;;;;;;6.15;2.30;;;;;;;;;;21001793;28;20056;-66
2023/07/27 06:19:18;;;;;;;5.60;2.53;;;;;;;;;;21002819;28;20052;-65
2023/07/27 06:29:19;;;;;;;5.35;2.53;;;;;;;;;;21000405;28;20059;-66
2023/07/27 06:39:20;;;;;;;5.07;2.25;;;;;;;;;;21001072;28;20037;-66
2023/07/27 06:49:21;;;;;;;10.50;2.58;;;;;;;;;;20999953;28;20045;-65
2023/07/27 06:59:23;;;;;;;8.55;3.20;;;;;;;;;;20999176;28;20063;-66
2023/07/27 07:09:24;;;;;;;7.47;2.92;;;;;;;;;;20998018;28;20071;-65
2023/07/27 07:19:26;;;;;;;5.85;2.65;;;;;;;;;;20996271;28;20109;-68
2023/07/27 07:29:27;;;;;;;10.70;3.67;;;;;;;;;;20997571;28;20382;-66
2023/07/27 07:39:28;;;;;;;9.98;3.08;;;;;;;;;;20997321;28;20049;-67
2023/07/27 07:49:30;;;;;;;10.90;3.20;;;;;;;;;;20996644;28;20044;-66
2023/07/27 07:59:31;;;;;;;12.18;3.30;;;;;;;;;;20996667;28;20044;-66
2023/07/27 08:09:32;;;;;;;8.90;3.80;;;;;;;;;;20995562;28;20059;-67
2023/07/27 08:19:33;;;;;;;8.75;3.00;;;;;;;;;;20996213;28;20055;-66
2023/07/27 08:29:34;;;;;;;12.95;3.47;;;;;;;;;;21006050;28;20134;-67
2023/07/27 08:39:35;;;;;;;9.20;3.20;;;;;;;;;;21010305;28;20071;-66
2023/07/27 08:49:37;;;;;;;12.18;4.05;;;;;;;;;;21009687;28;20070;-67
2023/07/27 08:59:38;;;;;;;8.50;3.53;;;;;;;;;;21008923;28;20494;-65
2023/07/27 09:09:40;;;;;;;8.43;3.45;;;;;;;;;;21007463;28;20505;-67
2023/07/27 09:19:42;;;;;;;15.82;5.47;;;;;;;;;;21006598;28;20040;-67
2023/07/27 09:29:43;;;;;;;9.98;3.58;;;;;;;;;;21004726;28;20091;-66
2023/07/27 09:39:46;;;;;;;12.43;4.00;;;;;;;;;;21004918;28;20512;-67
2023/07/27 09:49:52;;;;;;;10.50;3.70;;;;;;;;;;21002896;28;20041;-67
2023/07/27 09:59:53;;;;;;;6.65;3.72;;;;;;;;;;21003728;28;20580;-67
2023/07/27 10:10:13;;;;;;;7.75;3.55;;;;;;;;;;21003222;28;20577;-64
2023/07/27 10:20:28;;;;;;;14.55;4.18;;;;;;;;;;21001249;28;20102;-66
2023/07/27 10:30:31;;;;;;;9.17;4.03;;;;;;;;;;21001321;28;20199;-66
2023/07/27 10:40:32;;;;;;;9.07;3.85;;;;;;;;;;21000735;28;20094;-65
2023/07/27 10:50:39;;;;;;;9.05;4.15;;;;;;;;;;20998826;28;20040;-65
2023/07/27 11:00:42;;;;;;;12.00;3.92;;;;;;;;;;20998720;28;20044;-64
2023/07/27 11:10:43;;;;;;;9.55;3.60;;;;;;;;;;20997116;28;20048;-67
2023/07/27 11:20:45;;;;;;;7.15;3.38;;;;;;;;;;20997554;28;20055;-68
2023/07/27 11:30:50;;;;;;;9.27;3.63;;;;;;;;;;20997257;28;20052;-67
2023/07/27 11:40:54;;;;;;;6.10;3.03;;;;;;;;;;20995918;28;20091;-67
2023/07/27 11:50:57;;;;;;;8.90;4.05;;;;;;;;;;20996954;28;20045;-67
2023/07/27 12:00:58;;;;;;;8.55;3.42;;;;;;;;;;21003494;28;20517;-67
2023/07/27 12:10:59;;;;;;;7.35;3.45;;;;;;;;;;21011065;28;20090;-68
2023/07/27 12:21:01;;;;;;;6.35;3.10;;;;;;;;;;21011790;28;20553;-68
2023/07/27 12:31:02;;;;;;;11.20;3.67;;;;;;;;;;21011107;28;20387;-67
2023/07/27 12:41:03;;;;;;;12.63;5.85;;;;;;;;;;21008867;28;20036;-65
2023/07/27 12:51:04;;;;;;;5.40;3.55;;;;;;;;;;21008788;28;20553;-67
2023/07/27 13:01:05;;;;;;;5.50;3.63;;;;;;;;;;21006881;28;20095;-68
2023/07/27 13:11:06;;;;;;;8.77;3.63;;;;;;;;;;21006068;28;20045;-68
2023/07/27 13:21:07;;;;;;;6.13;3.35;;;;;;;;;;21006924;28;20041;-68
2023/07/27 13:31:11;;;;;;;6.78;2.75;;;;;;;;;;21005943;28;20045;-67
2023/07/27 13:41:12;;;;;;;7.35;4.13;;;;;;;;;;21005223;28;20048;-67
2023/07/27 13:51:13;;;;;;;9.95;3.22;;;;;;;;;;21004532;28;20044;-68
2023/07/27 14:01:14;;;;;;;8.32;3.47;;;;;;;;;;21003830;28;20044;-67
2023/07/27 14:11:16;;;;;;;6.88;3.25;;;;;;;;;;21001469;28;20044;-67
2023/07/27 14:21:17;;;;;;;5.97;3.60;;;;;;;;;;21000974;28;20056;-67
2023/07/27 14:31:18;;;;;;;8.25;3.95;;;;;;;;;;20999998;28;20136;-67
2023/07/27 14:41:20;;;;;;;5.60;3.55;;;;;;;;;;21000799;28;20048;-69
2023/07/27 14:51:21;;;;;;;7.70;3.42;;;;;;;;;;20999577;28;20037;-67
2023/07/27 15:01:22;;;;;;;7.20;3.92;;;;;;;;;;20999130;28;20048;-68
2023/07/27 15:11:23;;;;;;;10.88;4.40;;;;;;;;;;20997758;28;20048;-67
2023/07/27 15:21:24;;;;;;;7.18;4.05;;;;;;;;;;20997921;28;20048;-69
2023/07/27 15:31:26;;;;;;;7.68;5.85;;;;;;;;;;20997445;28;20044;-68
2023/07/27 15:41:27;;;;;;;5.97;3.80;;;;;;;;;;20996631;28;20085;-68
2023/07/27 15:51:28;;;;;;;5.95;3.63;;;;;;;;;;20996813;28;20040;-68
2023/07/27 16:01:33;;;;;;;6.47;3.80;;;;;;;;;;20994958;28;20055;-67
2023/07/27 16:11:34;;;;;;;;;;;;;;;;;;20994989;28;20048;-68
2023/07/27 16:21:35;;;;;;;7.22;3.95;;;;;;;;;;20995936;28;20389;-67
2023/07/27 16:31:36;;;;;;;6.90;4.00;;;;;;;;;;20995319;28;20048;-68
2023/07/27 16:41:37;;;;;;;8.10;3.78;;;;;;;;;;20995007;28;20052;-68
2023/07/27 16:51:38;;;;;;;7.40;3.53;;;;;;;;;;21006555;28;20049;-68
2023/07/27 17:01:40;;;;;;;6.60;3.92;;;;;;;;;;21009249;28;20044;-68
2023/07/27 17:11:41;;;;;;;8.77;3.65;;;;;;;;;;21006648;28;20118;-68
2023/07/27 17:21:42;;;;;;;5.65;3.55;;;;;;;;;;21007067;28;20128;-68
2023/07/27 17:31:43;;;;;;;9.05;3.97;;;;;;;;;;21005166;28;20045;-68
2023/07/27 17:41:44;;;;;;;5.57;3.83;;;;;;;;;;21005691;28;20056;-68
2023/07/27 17:51:45;;;;;;;7.00;3.90;;;;;;;;;;21004980;28;20547;-67
2023/07/27 18:01:47;;;;;;;5.68;4.13;;;;;;;;;;21002203;28;20051;-67
2023/07/27 18:11:48;;;;;;;6.13;3.80;;;;;;;;;;21002430;28;20350;-66
2023/07/27 18:21:49;;;;;;;9.80;4.05;;;;;;;;;;21002172;28;20051;-66
2023/07/27 18:31:50;;;;;;;7.20;3.80;;;;;;;;;;21001956;28;20048;-66
2023/07/27 18:41:51;;;;;;;8.15;3.72;;;;;;;;;;21000697;28;20036;-66
2023/07/27 18:51:52;;;;;;;10.48;3.65;;;;;;;;;;20999902;28;20496;-66
2023/07/27 19:01:54;;;;;;;5.72;4.05;;;;;;;;;;20998643;28;20048;-66
2023/07/27 19:11:55;;;;;;;7.13;3.55;;;;;;;;;;20996981;28;20510;-67
2023/07/27 19:21:56;;;;;;;5.72;3.50;;;;;;;;;;20998149;28;20390;-66
2023/07/27 19:31:57;;;;;;;6.43;3.75;;;;;;;;;;20997672;28;20504;-66
2023/07/27 19:41:58;;;;;;;6.82;4.18;;;;;;;;;;20997073;28;20505;-66
2023/07/27 19:51:59;;;;;;;7.45;3.88;;;;;;;;;;20996724;28;20478;-67
2023/07/27 20:02:01;;;;;;;9.40;4.13;;;;;;;;;;20996061;28;20079;-66
2023/07/27 20:12:02;;;;;;;9.60;4.50;;;;;;;;;;20994287;28;20060;-66
2023/07/27 20:22:03;;;;;;;9.32;4.72;;;;;;;;;;21002482;28;20451;-66
2023/07/27 20:32:04;;;;;;;8.05;4.30;;;;;;;;;;21011292;28;20054;-65
2023/07/27 20:42:05;;;;;;;7.53;4.38;;;;;;;;;;21010133;28;20052;-65
2023/07/27 20:52:07;;;;;;;5.75;3.80;;;;;;;;;;21009267;28;20044;-68
2023/07/27 21:02:08;;;;;;;7.97;4.25;;;;;;;;;;21007734;28;20072;-67
2023/07/27 21:12:09;;;;;;;8.93;4.28;;;;;;;;;;21007724;28;20061;-66
2023/07/27 21:22:10;;;;;;;7.30;4.28;;;;;;;;;;21007615;28;20433;-65
2023/07/27 21:32:11;;;;;;;7.07;4.03;;;;;;;;;;21006310;28;20049;-65
2023/07/27 21:42:12;;;;;;;8.63;3.88;;;;;;;;;;21005610;28;20404;-65
2023/07/27 21:52:13;;;;;;;9.35;4.38;;;;;;;;;;21002541;28;20036;-64
2023/07/27 22:02:14;;;;;;;5.63;3.60;;;;;;;;;;21002851;28;20067;-65
2023/07/27 22:12:15;;;;;;;5.03;3.35;;;;;;;;;;21001362;28;20084;-65
2023/07/27 22:22:16;;;;;;;6.07;3.75;;;;;;;;;;21001369;28;20116;-64
2023/07/27 22:32:18;;;;;;;8.50;3.55;;;;;;;;;;20999253;28;20046;-64
2023/07/27 22:42:19;;;;;;;5.55;3.00;;;;;;;;;;20999763;28;20079;-64
2023/07/27 22:52:20;;;;;;;4.78;3.50;;;;;;;;;;21000081;28;20072;-65
2023/07/27 23:02:21;;;;;;;9.48;3.85;;;;;;;;;;20999366;28;20041;-64
2023/07/27 23:12:22;;;;;;;5.65;3.60;;;;;;;;;;20997025;28;20051;-64
2023/07/27 23:22:23;;;;;;;7.57;3.45;;;;;;;;;;20996917;28;20105;-64
2023/07/27 23:32:24;;;;;;;5.78;3.70;;;;;;;;;;20997655;28;20482;-64
2023/07/27 23:42:25;;;;;;;5.60;3.40;;;;;;;;;;20997199;28;20044;-64
2023/07/27 23:52:27;;;;;;;5.88;3.67;;;;;;;;;;20996882;28;20036;-64
